Maersk Attender — MAKD8 — position and weather

sailwx.info

Track history (hours):
 
Tides and Currents Weather Stations Pressure Air Temp Water Temp Dewpoint Dewpoint Depression Visibility Wind Speed Wind Dir Waves Ship Positions

Maersk Attender

Last reported at 2018-Mar-31 18:03 UTC. Time now 2018-Apr-21 19:28 UTC.
Position N 57°16' E 010°42'.
Warning: this ship's position is 21 days out of date.

Length 90 m; draft 6.9 m.

Type: Towing. MMSI: 232005512.

Date/timePositionNaut miles runAvg speedWind from/ knotsBaromVisibWave heightAir tempDewpointWater temp
2018-Mar-31 18:03N 57°16' E 010°42'1 7.6
2018-Mar-31 17:56N 57°17' E 010°42'3 6.1
2018-Mar-31 17:30N 57°20' E 010°43'3 6.2
2018-Mar-31 17:00N 57°23' E 010°43'3 6.8
2018-Mar-31 16:30N 57°26' E 010°43'3 7.0
2018-Mar-31 16:00N 57°30' E 010°44'4 7.1
2018-Mar-31 15:29N 57°33' E 010°44'3 6.9
2018-Mar-31 15:00N 57°37' E 010°45'3 6.6
2018-Mar-31 14:30N 57°40' E 010°45'3 6.6
2018-Mar-31 14:00N 57°43' E 010°45'3 5.9
2018-Mar-31 13:30N 57°46' E 010°44'3 5.6
2018-Mar-31 13:00N 57°46' E 010°39'3 5.2
2018-Mar-31 12:30N 57°46' E 010°34'3 5.6
2018-Mar-31 12:00N 57°45' E 010°29'3 5.5
2018-Mar-31 11:30N 57°44' E 010°25'3 5.3
2018-Mar-31 11:00N 57°43' E 010°20'3 5.1
2018-Mar-31 10:30N 57°42' E 010°16'3 5.3
2018-Mar-31 10:00N 57°41' E 010°11'3 5.6
2018-Mar-31 09:26N 57°40' E 010°06'2 5.8
2018-Mar-31 09:00N 57°39' E 010°01'3 5.9
2018-Mar-31 08:30N 57°37' E 009°57'3 5.8
2018-Mar-31 07:56N 57°36' E 009°51'5 5.9
2018-Mar-31 07:05N 57°33' E 009°43'3 5.9
2018-Mar-31 06:39N 57°32' E 009°39'1 5.8
2018-Mar-31 06:30N 57°31' E 009°38'4 5.8
2018-Mar-31 05:46N 57°29' E 009°31'117 6.2
2018-Mar-30 10:56N 55°55' E 007°26'11 5.8
2018-Mar-30 09:01N 55°44' E 007°21'0 5.8
2018-Mar-30 09:00N 55°44' E 007°21'3 5.7
2018-Mar-30 08:30N 55°41' E 007°21'3 5.7
2018-Mar-30 08:00N 55°38' E 007°21'3 5.8
2018-Mar-30 07:30N 55°35' E 007°21'3 5.9
2018-Mar-30 07:00N 55°33' E 007°25'3 6.0
2018-Mar-30 06:30N 55°31' E 007°29'3 6.1
2018-Mar-30 06:00N 55°29' E 007°33'3 6.3
2018-Mar-30 05:30N 55°27' E 007°38'3 6.6
2018-Mar-30 05:00N 55°26' E 007°43'3 6.6
2018-Mar-30 04:30N 55°26' E 007°49'3 6.9
2018-Mar-30 04:00N 55°25' E 007°55'4 7.1
2018-Mar-30 03:30N 55°25' E 008°01'3 6.9
2018-Mar-30 03:00N 55°25' E 008°07'3 6.0
2018-Mar-30 02:30N 55°25' E 008°13'2 4.4
2018-Mar-30 02:00N 55°26' E 008°16'2 5.0
2018-Mar-30 01:30N 55°28' E 008°19'2 4.5
2018-Mar-30 01:00N 55°29' E 008°23'2 1.4
2018-Mar-29 23:32N 55°28' E 008°26'0 0.1
2018-Mar-29 23:29N 55°28' E 008°26'0 0.0
2018-Mar-29 22:53N 55°28' E 008°26'0 0.0
2018-Mar-29 22:29N 55°28' E 008°26'0 0.0
2018-Mar-29 21:50N 55°28' E 008°26'0 0.0
2018-Mar-29 21:23N 55°28' E 008°26'0 0.0
2018-Mar-29 20:56N 55°28' E 008°26'0 0.0
2018-Mar-29 20:23N 55°28' E 008°26'0 0.0
2018-Mar-29 19:53N 55°28' E 008°26'0 0.0
2018-Mar-29 19:23N 55°28' E 008°26'0 0.0
2018-Mar-29 18:53N 55°28' E 008°26'0 0.0
2018-Mar-29 18:20N 55°28' E 008°26'0 0.0
2018-Mar-29 17:53N 55°28' E 008°26'0 0.0
2018-Mar-29 17:26N 55°28' E 008°26'0 0.0
2018-Mar-29 16:56N 55°28' E 008°26'0 0.0
2018-Mar-29 16:23N 55°28' E 008°26'0 0.0
2018-Mar-29 15:59N 55°28' E 008°26'0 0.0
2018-Mar-29 15:26N 55°28' E 008°26'0 0.0
2018-Mar-29 14:59N 55°28' E 008°26'0 0.0
2018-Mar-29 14:26N 55°28' E 008°26'0 0.0
2018-Mar-29 13:56N 55°28' E 008°26'0 0.0
2018-Mar-29 13:29N 55°28' E 008°26'0 0.0
2018-Mar-29 12:59N 55°28' E 008°26'0 0.0
2018-Mar-29 12:29N 55°28' E 008°26'0 0.0
2018-Mar-29 11:59N 55°28' E 008°26'0 0.0
2018-Mar-29 11:29N 55°28' E 008°26'0 0.0
2018-Mar-29 10:59N 55°28' E 008°26'0 0.0
2018-Mar-29 10:26N 55°28' E 008°26'0 0.0
2018-Mar-29 09:59N 55°28' E 008°26'0 0.0
2018-Mar-29 09:29N 55°28' E 008°26'0 0.0
2018-Mar-29 08:59N 55°28' E 008°26'0 0.0
2018-Mar-29 08:20N 55°28' E 008°26'0 0.0
2018-Mar-29 07:59N 55°28' E 008°26'0 0.0
2018-Mar-29 07:20N 55°28' E 008°26'0 0.0
2018-Mar-29 06:56N 55°28' E 008°26'0 0.0
2018-Mar-29 06:23N 55°28' E 008°26'0 0.0
2018-Mar-29 05:53N 55°28' E 008°26'0 0.0
2018-Mar-29 05:20N 55°28' E 008°26'0 0.0
2018-Mar-29 04:53N 55°28' E 008°26'0 0.0
2018-Mar-29 04:26N 55°28' E 008°26'0 0.0
2018-Mar-29 03:56N 55°28' E 008°26'0 0.0
2018-Mar-29 03:26N 55°28' E 008°26'0 0.0
2018-Mar-29 02:56N 55°28' E 008°26'0 0.0
2018-Mar-29 02:23N 55°28' E 008°26'0 0.0
2018-Mar-29 01:53N 55°28' E 008°26'0 0.0
2018-Mar-29 01:26N 55°28' E 008°26'0 0.0
2018-Mar-29 00:59N 55°28' E 008°26'0 0.0
2018-Mar-29 00:29N 55°28' E 008°26'0 0.0
2018-Mar-28 23:59N 55°28' E 008°26'0 0.0
2018-Mar-28 23:26N 55°28' E 008°26'0 0.0
2018-Mar-28 22:56N 55°28' E 008°26'0 0.0
2018-Mar-28 22:29N 55°28' E 008°26'0 0.0
2018-Mar-28 21:59N 55°28' E 008°26'0 0.0
2018-Mar-28 21:29N 55°28' E 008°26'0 0.0
2018-Mar-28 20:14N 55°28' E 008°26'0 0.0
2018-Mar-28 19:47N 55°28' E 008°26'0 0.0
2018-Mar-28 19:29N 55°28' E 008°26'0 0.0
2018-Mar-28 18:59N 55°28' E 008°26'0 0.0
2018-Mar-28 18:17N 55°28' E 008°26'0 0.0
2018-Mar-28 17:59N 55°28' E 008°26'0 0.0
2018-Mar-28 17:20N 55°28' E 008°26'0 0.0
2018-Mar-28 16:59N 55°28' E 008°26'0 0.0
2018-Mar-28 16:29N 55°28' E 008°26'0 0.0
2018-Mar-28 15:53N 55°28' E 008°26'0 0.0
2018-Mar-28 15:20N 55°28' E 008°26'0 0.0
2018-Mar-28 14:59N 55°28' E 008°26'0 0.0
2018-Mar-28 14:23N 55°28' E 008°26'0 0.0
2018-Mar-28 13:56N 55°28' E 008°26'0 0.0
2018-Mar-28 13:26N 55°28' E 008°26'0 0.0
2018-Mar-28 12:56N 55°28' E 008°26'0 0.0
2018-Mar-28 12:26N 55°28' E 008°26'0 0.0
2018-Mar-28 11:56N 55°28' E 008°26'0 0.0
2018-Mar-28 11:23N 55°28' E 008°26'0 0.0
2018-Mar-28 10:56N 55°28' E 008°26'0 0.0
2018-Mar-28 10:29N 55°28' E 008°26'0 0.0
2018-Mar-28 09:53N 55°28' E 008°26'0 0.0
2018-Mar-28 08:41N 55°28' E 008°26'0 0.0
2018-Mar-28 08:26N 55°28' E 008°26'0 0.0
2018-Mar-28 07:59N 55°28' E 008°26'0 0.0
2018-Mar-28 07:29N 55°28' E 008°26'0 0.0
2018-Mar-28 06:44N 55°28' E 008°26'0 0.0
2018-Mar-28 06:02N 55°28' E 008°26'0 0.0
2018-Mar-28 05:59N 55°28' E 008°26'0 0.0
2018-Mar-28 05:20N 55°28' E 008°26'0 0.0
2018-Mar-28 04:59N 55°28' E 008°26'0 0.0
2018-Mar-28 04:29N 55°28' E 008°26'0 0.0
2018-Mar-28 03:59N 55°28' E 008°26'0 0.0
2018-Mar-28 03:29N 55°28' E 008°26'0 0.0
2018-Mar-28 02:56N 55°28' E 008°26'0 0.0
2018-Mar-28 02:20N 55°28' E 008°26'0 0.0
2018-Mar-28 01:53N 55°28' E 008°26'0 0.0
2018-Mar-28 01:23N 55°28' E 008°26'0 0.0
2018-Mar-28 00:53N 55°28' E 008°26'0 0.0
2018-Mar-28 00:23N 55°28' E 008°26'0 0.0
2018-Mar-27 23:59N 55°28' E 008°26'0 0.0
2018-Mar-27 23:29N 55°28' E 008°26'0 0.0
2018-Mar-27 22:59N 55°28' E 008°26'0 0.0
2018-Mar-27 22:26N 55°28' E 008°26'0 0.0
2018-Mar-27 21:56N 55°28' E 008°26'0 0.0
2018-Mar-27 21:20N 55°28' E 008°26'0 0.0
2018-Mar-27 20:59N 55°28' E 008°26'0 0.0
2018-Mar-27 20:29N 55°28' E 008°26'0 0.0
2018-Mar-27 19:59N 55°28' E 008°26'0 0.0
2018-Mar-27 19:26N 55°28' E 008°26'0 0.0
2018-Mar-27 18:53N 55°28' E 008°26'0 0.0
2018-Mar-27 18:20N 55°28' E 008°26'0 0.0
2018-Mar-27 17:59N 55°28' E 008°26'0 0.0
2018-Mar-27 17:17N 55°28' E 008°26'0 0.0
2018-Mar-27 16:59N 55°28' E 008°26'0 0.0
2018-Mar-27 16:29N 55°28' E 008°26'0 0.0
2018-Mar-27 15:59N 55°28' E 008°26'0 0.0
2018-Mar-27 15:29N 55°28' E 008°26'0 0.0
2018-Mar-27 14:47N 55°28' E 008°26'0 0.0
2018-Mar-27 14:29N 55°28' E 008°26'0 0.0
2018-Mar-27 13:56N 55°28' E 008°26'0 0.0
2018-Mar-27 13:29N 55°28' E 008°26'0 0.0
2018-Mar-27 12:59N 55°28' E 008°26'0 0.0
2018-Mar-27 12:29N 55°28' E 008°26'0 0.0
2018-Mar-27 11:59N 55°28' E 008°26'0 0.0
2018-Mar-27 11:17N 55°28' E 008°26'0 0.0
2018-Mar-27 10:59N 55°28' E 008°26'0 0.0
2018-Mar-27 10:29N 55°28' E 008°26'0 0.0
2018-Mar-27 09:53N 55°28' E 008°26'0 0.0
2018-Mar-27 09:23N 55°28' E 008°26'0 0.0
2018-Mar-27 08:59N 55°28' E 008°26'0 0.0
2018-Mar-27 08:29N 55°28' E 008°26'0 0.0
2018-Mar-27 07:53N 55°28' E 008°26'0 0.0
2018-Mar-27 07:26N 55°28' E 008°26'0 0.0
2018-Mar-27 06:56N 55°28' E 008°26'0 0.0
2018-Mar-27 06:29N 55°28' E 008°26'0 0.0
2018-Mar-27 05:59N 55°28' E 008°26'0 0.0
2018-Mar-27 05:29N 55°28' E 008°26'0 0.0
2018-Mar-27 04:56N 55°28' E 008°26'0 0.0
2018-Mar-27 04:26N 55°28' E 008°26'0 0.0
2018-Mar-27 03:56N 55°28' E 008°26'0 0.0
2018-Mar-27 03:26N 55°28' E 008°26'0 0.0
2018-Mar-27 02:59N 55°28' E 008°26'0 0.0
2018-Mar-27 01:59N 55°28' E 008°26'0 0.0
2018-Mar-27 01:29N 55°28' E 008°26'0 0.0
2018-Mar-27 00:50N 55°28' E 008°26'0 0.0
2018-Mar-27 00:26N 55°28' E 008°26'0 0.0
2018-Mar-26 23:59N 55°28' E 008°26'0 0.0
2018-Mar-26 23:29N 55°28' E 008°26'0 0.0
2018-Mar-26 22:59N 55°28' E 008°26'0 0.0
2018-Mar-26 22:23N 55°28' E 008°26'0 0.0
2018-Mar-26 21:59N 55°28' E 008°26'0 0.0
2018-Mar-26 21:29N 55°28' E 008°26'0 0.0
2018-Mar-26 20:59N 55°28' E 008°26'0 0.0
2018-Mar-26 20:29N 55°28' E 008°26'0 0.0
2018-Mar-26 19:53N 55°28' E 008°26'0 0.0
2018-Mar-26 19:29N 55°28' E 008°26'0 0.0
2018-Mar-26 18:59N 55°28' E 008°26'0 0.0
2018-Mar-26 18:23N 55°28' E 008°26'0 0.0
2018-Mar-26 17:59N 55°28' E 008°26'0 0.0
2018-Mar-26 17:29N 55°28' E 008°26'0 0.0
2018-Mar-26 16:59N 55°28' E 008°26'0 0.0
2018-Mar-26 16:29N 55°28' E 008°26'0 0.0
2018-Mar-26 15:47N 55°28' E 008°26'0 0.0
2018-Mar-26 15:29N 55°28' E 008°26'0 0.0
2018-Mar-26 14:56N 55°28' E 008°26'0 0.0
2018-Mar-26 14:26N 55°28' E 008°26'0 0.0
2018-Mar-26 13:59N 55°28' E 008°26'0 0.0
2018-Mar-26 13:29N 55°28' E 008°26'0 0.0
2018-Mar-26 12:56N 55°28' E 008°26'0 0.0
2018-Mar-26 12:29N 55°28' E 008°26'0 0.0
2018-Mar-26 11:59N 55°28' E 008°26'0 0.0
2018-Mar-26 11:20N 55°28' E 008°26'0 0.0
2018-Mar-26 10:59N 55°28' E 008°26'0 0.0
2018-Mar-26 10:14N 55°28' E 008°26'0 0.0
2018-Mar-26 09:59N 55°28' E 008°26'0 0.0
2018-Mar-26 09:23N 55°28' E 008°26'0 0.0
2018-Mar-26 08:35N 55°28' E 008°26'0 0.0
2018-Mar-26 08:23N 55°28' E 008°26'0 0.0
2018-Mar-26 07:38N 55°28' E 008°26'0 0.0
2018-Mar-26 07:23N 55°28' E 008°26'0 0.0
2018-Mar-26 06:50N 55°28' E 008°26'0 0.0
2018-Mar-26 05:41N 55°28' E 008°26'0 0.0
2018-Mar-26 05:26N 55°28' E 008°26'0 0.0
2018-Mar-26 04:47N 55°28' E 008°26'0 0.0
2018-Mar-26 04:26N 55°28' E 008°26'0 0.0
2018-Mar-26 03:56N 55°28' E 008°26'0 0.0
2018-Mar-26 03:23N 55°28' E 008°26'0 0.0
2018-Mar-26 02:59N 55°28' E 008°26'0 0.0
2018-Mar-26 02:29N 55°28' E 008°26'0 0.0
2018-Mar-26 01:59N 55°28' E 008°26'0 0.0
2018-Mar-26 01:29N 55°28' E 008°26'0 0.0
2018-Mar-26 00:59N 55°28' E 008°26'0 0.0
2018-Mar-26 00:26N 55°28' E 008°26'0 0.0
2018-Mar-25 23:59N 55°28' E 008°26'0 0.0
2018-Mar-25 23:29N 55°28' E 008°26'0 0.0
2018-Mar-25 22:56N 55°28' E 008°26'0 0.0
2018-Mar-25 22:29N 55°28' E 008°26'0 0.0
2018-Mar-25 21:59N 55°28' E 008°26'0 0.0
2018-Mar-25 21:29N 55°28' E 008°26'0 0.0
2018-Mar-25 20:59N 55°28' E 008°26'0 0.0
2018-Mar-25 20:29N 55°28' E 008°26'0 0.0
2018-Mar-25 19:47N 55°28' E 008°26'0 0.0
2018-Mar-25 19:17N 55°28' E 008°26'0 0.0
2018-Mar-25 18:23N 55°28' E 008°26'0 0.0
2018-Mar-25 17:56N 55°28' E 008°26'0 0.0
2018-Mar-25 17:26N 55°28' E 008°26'0 0.0
2018-Mar-25 16:56N 55°28' E 008°26'0 0.0
2018-Mar-25 16:23N 55°28' E 008°26'0 0.0
2018-Mar-25 15:56N 55°28' E 008°26'0 0.0
2018-Mar-25 15:26N 55°28' E 008°26'0 0.0
2018-Mar-25 14:56N 55°28' E 008°26'0 0.0
2018-Mar-25 14:26N 55°28' E 008°26'0 0.0
2018-Mar-25 13:56N 55°28' E 008°26'0 0.0
2018-Mar-25 13:26N 55°28' E 008°26'0 0.0
2018-Mar-25 12:59N 55°28' E 008°26'0 0.0
2018-Mar-25 11:41N 55°28' E 008°26'0 0.0
2018-Mar-25 11:29N 55°28' E 008°26'0 0.0
2018-Mar-25 10:59N 55°28' E 008°26'0 0.0
2018-Mar-25 10:29N 55°28' E 008°26'0 0.0
2018-Mar-25 09:47N 55°28' E 008°26'0 0.0
2018-Mar-25 09:29N 55°28' E 008°26'0 0.0
2018-Mar-25 08:59N 55°28' E 008°26'0 0.0
2018-Mar-25 07:47N 55°28' E 008°26'0 0.0
2018-Mar-25 07:29N 55°28' E 008°26'0 0.0
2018-Mar-25 06:59N 55°28' E 008°26'0 0.0
2018-Mar-25 06:29N 55°28' E 008°26'0 0.0
2018-Mar-25 05:59N 55°28' E 008°26'0 0.0
2018-Mar-25 05:29N 55°28' E 008°26'0 0.0
2018-Mar-25 04:56N 55°28' E 008°26'0 0.0
2018-Mar-25 04:29N 55°28' E 008°26'0 0.0
2018-Mar-25 03:59N 55°28' E 008°26'0 0.0
2018-Mar-25 03:23N 55°28' E 008°26'0 0.0
2018-Mar-25 02:56N 55°28' E 008°26'0 0.0
2018-Mar-25 02:29N 55°28' E 008°26'0 0.0
2018-Mar-25 01:59N 55°28' E 008°26'0 0.0
2018-Mar-25 01:26N 55°28' E 008°26'0 0.0
2018-Mar-25 00:56N 55°28' E 008°26'0 0.0
2018-Mar-25 00:26N 55°28' E 008°26'0 0.0
2018-Mar-24 23:56N 55°28' E 008°26'0 0.0
2018-Mar-24 23:20N 55°28' E 008°26'0 0.0
2018-Mar-24 22:59N 55°28' E 008°26'0 0.0
2018-Mar-24 22:29N 55°28' E 008°26'0 0.0
2018-Mar-24 21:41N 55°28' E 008°26'0 0.0
2018-Mar-24 21:29N 55°28' E 008°26'0 0.0
2018-Mar-24 20:59N 55°28' E 008°26'0 0.0
2018-Mar-24 20:26N 55°28' E 008°26'0 0.0
2018-Mar-24 19:56N 55°28' E 008°26'0 0.0
2018-Mar-24 19:29N 55°28' E 008°26'0 0.0
2018-Mar-24 18:47N 55°28' E 008°26'0 0.0
2018-Mar-24 17:59N 55°28' E 008°26'0 0.0
2018-Mar-24 17:17N 55°28' E 008°26'0 0.0
2018-Mar-24 16:53N 55°28' E 008°26'0 0.0
2018-Mar-24 16:29N 55°28' E 008°26'0 0.0
2018-Mar-24 15:53N 55°28' E 008°26'0 0.0
2018-Mar-24 15:20N 55°28' E 008°26'0 0.0
2018-Mar-24 14:50N 55°28' E 008°26'0 0.0
2018-Mar-24 14:29N 55°28' E 008°26'0 0.0
2018-Mar-24 13:53N 55°28' E 008°26'0 0.0
2018-Mar-24 13:23N 55°28' E 008°26'0 0.0
2018-Mar-24 12:53N 55°28' E 008°26'0 0.0
2018-Mar-24 12:20N 55°28' E 008°26'0 0.0
2018-Mar-24 11:53N 55°28' E 008°26'0 0.0
2018-Mar-24 11:26N 55°28' E 008°26'0 0.0
2018-Mar-24 10:56N 55°28' E 008°26'0 0.0
2018-Mar-24 10:23N 55°28' E 008°26'0 0.0
2018-Mar-24 09:56N 55°28' E 008°26'0 0.0
2018-Mar-24 09:29N 55°28' E 008°26'0 0.0
2018-Mar-24 08:59N 55°28' E 008°26'0 0.0
2018-Mar-24 08:29N 55°28' E 008°26'0 0.0
2018-Mar-24 07:56N 55°28' E 008°26'0 0.0
2018-Mar-24 07:29N 55°28' E 008°26'0 0.0
2018-Mar-24 06:26N 55°28' E 008°26'0 0.0
2018-Mar-24 05:56N 55°28' E 008°26'0 0.0
2018-Mar-24 05:17N 55°28' E 008°26'0 0.0
2018-Mar-24 04:59N 55°28' E 008°26'0 0.0
2018-Mar-24 04:29N 55°28' E 008°26'0 0.0
2018-Mar-24 03:59N 55°28' E 008°26'0 0.0
2018-Mar-24 03:29N 55°28' E 008°26'0 0.0
2018-Mar-24 02:59N 55°28' E 008°26'0 0.0
2018-Mar-24 02:29N 55°28' E 008°26'0 0.0
2018-Mar-24 01:59N 55°28' E 008°26'0 0.0
2018-Mar-24 01:29N 55°28' E 008°26'0 0.0
2018-Mar-24 00:59N 55°28' E 008°26'0 0.0
2018-Mar-24 00:20N 55°28' E 008°26'0 0.0
2018-Mar-23 23:50N 55°28' E 008°26'0 0.0
2018-Mar-23 23:23N 55°28' E 008°26'0 0.0
2018-Mar-23 22:50N 55°28' E 008°26'0 0.0
2018-Mar-23 22:23N 55°28' E 008°26'0 0.0
2018-Mar-23 21:56N 55°28' E 008°26'0 0.0
2018-Mar-23 21:11N 55°28' E 008°26'0 0.0
2018-Mar-23 20:56N 55°28' E 008°26'0 0.0
2018-Mar-23 20:29N 55°28' E 008°26'0 0.0
2018-Mar-23 19:59N 55°28' E 008°26'0 0.0
2018-Mar-23 19:17N 55°28' E 008°26'0 0.0
2018-Mar-23 18:59N 55°28' E 008°26'0 0.0
2018-Mar-23 18:11N 55°28' E 008°26'0 0.0
2018-Mar-23 17:44N 55°28' E 008°26'0 0.0
2018-Mar-23 17:26N 55°28' E 008°26'0 0.0
2018-Mar-23 16:59N 55°28' E 008°26'0 0.0
2018-Mar-23 16:29N 55°28' E 008°26'0 0.0
2018-Mar-23 15:56N 55°28' E 008°26'0 0.0
2018-Mar-23 15:26N 55°28' E 008°26'0 0.0
2018-Mar-23 14:38N 55°28' E 008°26'0 0.0
2018-Mar-23 14:29N 55°28' E 008°26'0 0.0
2018-Mar-23 13:47N 55°28' E 008°26'0 0.0
2018-Mar-23 13:29N 55°28' E 008°26'0 0.0
2018-Mar-23 12:59N 55°28' E 008°26'0 0.0
2018-Mar-23 12:14N 55°28' E 008°26'0 0.0
2018-Mar-23 11:50N 55°28' E 008°26'0 0.0
2018-Mar-23 11:17N 55°28' E 008°26'0 0.0
2018-Mar-23 10:50N 55°28' E 008°26'0 0.0
2018-Mar-23 10:23N 55°28' E 008°26'0 0.0
2018-Mar-23 09:53N 55°28' E 008°26'0 0.0
2018-Mar-23 09:23N 55°28' E 008°26'0 0.0
2018-Mar-23 08:53N 55°28' E 008°26'0 0.0
2018-Mar-23 08:23N 55°28' E 008°26'0 0.0
2018-Mar-23 07:53N 55°28' E 008°26'0 0.0
2018-Mar-23 07:20N 55°28' E 008°26'0 0.0
2018-Mar-23 06:56N 55°28' E 008°26'0 0.0
2018-Mar-23 06:26N 55°28' E 008°26'0 0.0
2018-Mar-23 05:56N 55°28' E 008°26'0 0.0
2018-Mar-23 05:26N 55°28' E 008°26'0 0.0
2018-Mar-23 04:59N 55°28' E 008°26'0 0.0
2018-Mar-23 04:29N 55°28' E 008°26'0 0.0
2018-Mar-23 03:59N 55°28' E 008°26'0 0.0
2018-Mar-23 02:59N 55°28' E 008°26'0 0.0
2018-Mar-23 02:17N 55°28' E 008°26'0 0.0
2018-Mar-23 01:56N 55°28' E 008°26'0 0.0
2018-Mar-23 01:26N 55°28' E 008°26'0 0.0
2018-Mar-23 00:59N 55°28' E 008°26'0 0.0
2018-Mar-23 00:29N 55°28' E 008°26'0 0.0
2018-Mar-22 23:59N 55°28' E 008°26'0 0.0
2018-Mar-22 23:23N 55°28' E 008°26'0 0.0
2018-Mar-22 22:59N 55°28' E 008°26'0 0.0
2018-Mar-22 22:29N 55°28' E 008°26'0 0.0
2018-Mar-22 21:59N 55°28' E 008°26'0 0.0
2018-Mar-22 21:23N 55°28' E 008°26'0 0.0
2018-Mar-22 20:53N 55°28' E 008°26'0 0.0
2018-Mar-22 20:23N 55°28' E 008°26'0 0.0
2018-Mar-22 19:53N 55°28' E 008°26'0 0.0
2018-Mar-22 19:23N 55°28' E 008°26'0 0.0
2018-Mar-22 18:59N 55°28' E 008°26'0 0.0
2018-Mar-22 18:23N 55°28' E 008°26'0 0.0
2018-Mar-22 17:56N 55°28' E 008°26'0 0.0
2018-Mar-22 17:23N 55°28' E 008°26'0 0.0
2018-Mar-22 16:59N 55°28' E 008°26'0 0.0
2018-Mar-22 16:26N 55°28' E 008°26'0 0.0
2018-Mar-22 15:56N 55°28' E 008°26'0 0.0
2018-Mar-22 15:26N 55°28' E 008°26'0 0.0
2018-Mar-22 14:59N 55°28' E 008°26'0 0.0
2018-Mar-22 14:29N 55°28' E 008°26'0 0.0
2018-Mar-22 13:56N 55°28' E 008°26'0 0.0
2018-Mar-22 13:29N 55°28' E 008°26'0 0.0
2018-Mar-22 12:56N 55°28' E 008°26'0 0.0
2018-Mar-22 12:17N 55°28' E 008°26'0 0.0
2018-Mar-22 11:56N 55°28' E 008°26'0 0.0
2018-Mar-22 11:29N 55°28' E 008°26'0 0.0
2018-Mar-22 10:59N 55°28' E 008°26'0 0.0
2018-Mar-22 10:29N 55°28' E 008°26'0 0.0
2018-Mar-22 09:59N 55°28' E 008°26'0 0.0
2018-Mar-22 09:29N 55°28' E 008°26'0 0.0
2018-Mar-22 08:59N 55°28' E 008°26'0 0.0
2018-Mar-22 08:29N 55°28' E 008°26'0 0.0
2018-Mar-22 07:47N 55°28' E 008°26'0 0.0
2018-Mar-22 07:20N 55°28' E 008°26'0 0.0
2018-Mar-22 06:56N 55°28' E 008°26'0 0.0
2018-Mar-22 06:23N 55°28' E 008°26'0 0.0
2018-Mar-22 05:53N 55°28' E 008°26'0 0.0
2018-Mar-22 05:20N 55°28' E 008°26'0 0.0
2018-Mar-22 04:59N 55°28' E 008°26'0 0.0
2018-Mar-22 04:23N 55°28' E 008°26'0 0.0
2018-Mar-22 03:56N 55°28' E 008°26'0 0.0
2018-Mar-22 03:26N 55°28' E 008°26'0 0.0
2018-Mar-22 02:53N 55°28' E 008°26'0 0.0
2018-Mar-22 02:26N 55°28' E 008°26'0 0.0
2018-Mar-22 01:59N 55°28' E 008°26'0 0.0
2018-Mar-22 01:26N 55°28' E 008°26'0 0.0
2018-Mar-22 00:59N 55°28' E 008°26'0 0.0
2018-Mar-22 00:29N 55°28' E 008°26'0 0.0
2018-Mar-21 23:53N 55°28' E 008°26'0 0.0
2018-Mar-21 23:29N 55°28' E 008°26'0 0.0
2018-Mar-21 22:59N 55°28' E 008°26'0 0.0
2018-Mar-21 22:29N 55°28' E 008°26'0 0.0
2018-Mar-21 21:59N 55°28' E 008°26'0 0.0
2018-Mar-21 21:29N 55°28' E 008°26'0 0.0
2018-Mar-21 20:59N 55°28' E 008°26'0 0.0
2018-Mar-21 20:29N 55°28' E 008°26'0 0.0
2018-Mar-21 19:59N 55°28' E 008°26'0 0.0
2018-Mar-21 19:29N 55°28' E 008°26'0 0.0
2018-Mar-21 18:59N 55°28' E 008°26'0 0.0
2018-Mar-21 18:26N 55°28' E 008°26'  
Track history (hours):
 
Tides and Currents Weather Stations Pressure Air Temp Water Temp Dewpoint Dewpoint Depression Visibility Wind Speed Wind Dir Waves Ship Positions

Maersk Attender

Last reported at 2018-Mar-31 18:03 UTC. Time now 2018-Apr-21 19:28 UTC.
Position N 57°16' E 010°42'.
Warning: this ship's position is 21 days out of date.

Length 90 m; draft 6.9 m.

Type: Towing. MMSI: 232005512.

Date/timePositionNaut miles runAvg speedWind from/ knotsBaromVisibWave heightAir tempDewpointWater temp
2018-Mar-31 18:03N 57°16' E 010°42'1 7.6
2018-Mar-31 17:56N 57°17' E 010°42'3 6.1
2018-Mar-31 17:30N 57°20' E 010°43'3 6.2
2018-Mar-31 17:00N 57°23' E 010°43'3 6.8
2018-Mar-31 16:30N 57°26' E 010°43'3 7.0
2018-Mar-31 16:00N 57°30' E 010°44'4 7.1
2018-Mar-31 15:29N 57°33' E 010°44'3 6.9
2018-Mar-31 15:00N 57°37' E 010°45'3 6.6
2018-Mar-31 14:30N 57°40' E 010°45'3 6.6
2018-Mar-31 14:00N 57°43' E 010°45'3 5.9
2018-Mar-31 13:30N 57°46' E 010°44'3 5.6
2018-Mar-31 13:00N 57°46' E 010°39'3 5.2
2018-Mar-31 12:30N 57°46' E 010°34'3 5.6
2018-Mar-31 12:00N 57°45' E 010°29'3 5.5
2018-Mar-31 11:30N 57°44' E 010°25'3 5.3
2018-Mar-31 11:00N 57°43' E 010°20'3 5.1
2018-Mar-31 10:30N 57°42' E 010°16'3 5.3
2018-Mar-31 10:00N 57°41' E 010°11'3 5.6
2018-Mar-31 09:26N 57°40' E 010°06'2 5.8
2018-Mar-31 09:00N 57°39' E 010°01'3 5.9
2018-Mar-31 08:30N 57°37' E 009°57'3 5.8
2018-Mar-31 07:56N 57°36' E 009°51'5 5.9
2018-Mar-31 07:05N 57°33' E 009°43'3 5.9
2018-Mar-31 06:39N 57°32' E 009°39'1 5.8
2018-Mar-31 06:30N 57°31' E 009°38'4 5.8
2018-Mar-31 05:46N 57°29' E 009°31'117 6.2
2018-Mar-30 10:56N 55°55' E 007°26'11 5.8
2018-Mar-30 09:01N 55°44' E 007°21'0 5.8
2018-Mar-30 09:00N 55°44' E 007°21'3 5.7
2018-Mar-30 08:30N 55°41' E 007°21'3 5.7
2018-Mar-30 08:00N 55°38' E 007°21'3 5.8
2018-Mar-30 07:30N 55°35' E 007°21'3 5.9
2018-Mar-30 07:00N 55°33' E 007°25'3 6.0
2018-Mar-30 06:30N 55°31' E 007°29'3 6.1
2018-Mar-30 06:00N 55°29' E 007°33'3 6.3
2018-Mar-30 05:30N 55°27' E 007°38'3 6.6
2018-Mar-30 05:00N 55°26' E 007°43'3 6.6
2018-Mar-30 04:30N 55°26' E 007°49'3 6.9
2018-Mar-30 04:00N 55°25' E 007°55'4 7.1
2018-Mar-30 03:30N 55°25' E 008°01'3 6.9
2018-Mar-30 03:00N 55°25' E 008°07'3 6.0
2018-Mar-30 02:30N 55°25' E 008°13'2 4.4
2018-Mar-30 02:00N 55°26' E 008°16'2 5.0
2018-Mar-30 01:30N 55°28' E 008°19'2 4.5
2018-Mar-30 01:00N 55°29' E 008°23'2 1.4
2018-Mar-29 23:32N 55°28' E 008°26'0 0.1
2018-Mar-29 23:29N 55°28' E 008°26'0 0.0
2018-Mar-29 22:53N 55°28' E 008°26'0 0.0
2018-Mar-29 22:29N 55°28' E 008°26'0 0.0
2018-Mar-29 21:50N 55°28' E 008°26'0 0.0
2018-Mar-29 21:23N 55°28' E 008°26'0 0.0
2018-Mar-29 20:56N 55°28' E 008°26'0 0.0
2018-Mar-29 20:23N 55°28' E 008°26'0 0.0
2018-Mar-29 19:53N 55°28' E 008°26'0 0.0
2018-Mar-29 19:23N 55°28' E 008°26'0 0.0
2018-Mar-29 18:53N 55°28' E 008°26'0 0.0
2018-Mar-29 18:20N 55°28' E 008°26'0 0.0
2018-Mar-29 17:53N 55°28' E 008°26'0 0.0
2018-Mar-29 17:26N 55°28' E 008°26'0 0.0
2018-Mar-29 16:56N 55°28' E 008°26'0 0.0
2018-Mar-29 16:23N 55°28' E 008°26'0 0.0
2018-Mar-29 15:59N 55°28' E 008°26'0 0.0
2018-Mar-29 15:26N 55°28' E 008°26'0 0.0
2018-Mar-29 14:59N 55°28' E 008°26'0 0.0
2018-Mar-29 14:26N 55°28' E 008°26'0 0.0
2018-Mar-29 13:56N 55°28' E 008°26'0 0.0
2018-Mar-29 13:29N 55°28' E 008°26'0 0.0
2018-Mar-29 12:59N 55°28' E 008°26'0 0.0
2018-Mar-29 12:29N 55°28' E 008°26'0 0.0
2018-Mar-29 11:59N 55°28' E 008°26'0 0.0
2018-Mar-29 11:29N 55°28' E 008°26'0 0.0
2018-Mar-29 10:59N 55°28' E 008°26'0 0.0
2018-Mar-29 10:26N 55°28' E 008°26'0 0.0
2018-Mar-29 09:59N 55°28' E 008°26'0 0.0
2018-Mar-29 09:29N 55°28' E 008°26'0 0.0
2018-Mar-29 08:59N 55°28' E 008°26'0 0.0
2018-Mar-29 08:20N 55°28' E 008°26'0 0.0
2018-Mar-29 07:59N 55°28' E 008°26'0 0.0
2018-Mar-29 07:20N 55°28' E 008°26'0 0.0
2018-Mar-29 06:56N 55°28' E 008°26'0 0.0
2018-Mar-29 06:23N 55°28' E 008°26'0 0.0
2018-Mar-29 05:53N 55°28' E 008°26'0 0.0
2018-Mar-29 05:20N 55°28' E 008°26'0 0.0
2018-Mar-29 04:53N 55°28' E 008°26'0 0.0
2018-Mar-29 04:26N 55°28' E 008°26'0 0.0
2018-Mar-29 03:56N 55°28' E 008°26'0 0.0
2018-Mar-29 03:26N 55°28' E 008°26'0 0.0
2018-Mar-29 02:56N 55°28' E 008°26'0 0.0
2018-Mar-29 02:23N 55°28' E 008°26'0 0.0
2018-Mar-29 01:53N 55°28' E 008°26'0 0.0
2018-Mar-29 01:26N 55°28' E 008°26'0 0.0
2018-Mar-29 00:59N 55°28' E 008°26'0 0.0
2018-Mar-29 00:29N 55°28' E 008°26'0 0.0
2018-Mar-28 23:59N 55°28' E 008°26'0 0.0
2018-Mar-28 23:26N 55°28' E 008°26'0 0.0
2018-Mar-28 22:56N 55°28' E 008°26'0 0.0
2018-Mar-28 22:29N 55°28' E 008°26'0 0.0
2018-Mar-28 21:59N 55°28' E 008°26'0 0.0
2018-Mar-28 21:29N 55°28' E 008°26'0 0.0
2018-Mar-28 20:14N 55°28' E 008°26'0 0.0
2018-Mar-28 19:47N 55°28' E 008°26'0 0.0
2018-Mar-28 19:29N 55°28' E 008°26'0 0.0
2018-Mar-28 18:59N 55°28' E 008°26'0 0.0
2018-Mar-28 18:17N 55°28' E 008°26'0 0.0
2018-Mar-28 17:59N 55°28' E 008°26'0 0.0
2018-Mar-28 17:20N 55°28' E 008°26'0 0.0
2018-Mar-28 16:59N 55°28' E 008°26'0 0.0
2018-Mar-28 16:29N 55°28' E 008°26'0 0.0
2018-Mar-28 15:53N 55°28' E 008°26'0 0.0
2018-Mar-28 15:20N 55°28' E 008°26'0 0.0
2018-Mar-28 14:59N 55°28' E 008°26'0 0.0
2018-Mar-28 14:23N 55°28' E 008°26'0 0.0
2018-Mar-28 13:56N 55°28' E 008°26'0 0.0
2018-Mar-28 13:26N 55°28' E 008°26'0 0.0
2018-Mar-28 12:56N 55°28' E 008°26'0 0.0
2018-Mar-28 12:26N 55°28' E 008°26'0 0.0
2018-Mar-28 11:56N 55°28' E 008°26'0 0.0
2018-Mar-28 11:23N 55°28' E 008°26'0 0.0
2018-Mar-28 10:56N 55°28' E 008°26'0 0.0
2018-Mar-28 10:29N 55°28' E 008°26'0 0.0
2018-Mar-28 09:53N 55°28' E 008°26'0 0.0
2018-Mar-28 08:41N 55°28' E 008°26'0 0.0
2018-Mar-28 08:26N 55°28' E 008°26'0 0.0
2018-Mar-28 07:59N 55°28' E 008°26'0 0.0
2018-Mar-28 07:29N 55°28' E 008°26'0 0.0
2018-Mar-28 06:44N 55°28' E 008°26'0 0.0
2018-Mar-28 06:02N 55°28' E 008°26'0 0.0
2018-Mar-28 05:59N 55°28' E 008°26'0 0.0
2018-Mar-28 05:20N 55°28' E 008°26'0 0.0
2018-Mar-28 04:59N 55°28' E 008°26'0 0.0
2018-Mar-28 04:29N 55°28' E 008°26'0 0.0
2018-Mar-28 03:59N 55°28' E 008°26'0 0.0
2018-Mar-28 03:29N 55°28' E 008°26'0 0.0
2018-Mar-28 02:56N 55°28' E 008°26'0 0.0
2018-Mar-28 02:20N 55°28' E 008°26'0 0.0
2018-Mar-28 01:53N 55°28' E 008°26'0 0.0
2018-Mar-28 01:23N 55°28' E 008°26'0 0.0
2018-Mar-28 00:53N 55°28' E 008°26'0 0.0
2018-Mar-28 00:23N 55°28' E 008°26'0 0.0
2018-Mar-27 23:59N 55°28' E 008°26'0 0.0
2018-Mar-27 23:29N 55°28' E 008°26'0 0.0
2018-Mar-27 22:59N 55°28' E 008°26'0 0.0
2018-Mar-27 22:26N 55°28' E 008°26'0 0.0
2018-Mar-27 21:56N 55°28' E 008°26'0 0.0
2018-Mar-27 21:20N 55°28' E 008°26'0 0.0
2018-Mar-27 20:59N 55°28' E 008°26'0 0.0
2018-Mar-27 20:29N 55°28' E 008°26'0 0.0
2018-Mar-27 19:59N 55°28' E 008°26'0 0.0
2018-Mar-27 19:26N 55°28' E 008°26'0 0.0
2018-Mar-27 18:53N 55°28' E 008°26'0 0.0
2018-Mar-27 18:20N 55°28' E 008°26'0 0.0
2018-Mar-27 17:59N 55°28' E 008°26'0 0.0
2018-Mar-27 17:17N 55°28' E 008°26'0 0.0
2018-Mar-27 16:59N 55°28' E 008°26'0 0.0
2018-Mar-27 16:29N 55°28' E 008°26'0 0.0
2018-Mar-27 15:59N 55°28' E 008°26'0 0.0
2018-Mar-27 15:29N 55°28' E 008°26'0 0.0
2018-Mar-27 14:47N 55°28' E 008°26'0 0.0
2018-Mar-27 14:29N 55°28' E 008°26'0 0.0
2018-Mar-27 13:56N 55°28' E 008°26'0 0.0
2018-Mar-27 13:29N 55°28' E 008°26'0 0.0
2018-Mar-27 12:59N 55°28' E 008°26'0 0.0
2018-Mar-27 12:29N 55°28' E 008°26'0 0.0
2018-Mar-27 11:59N 55°28' E 008°26'0 0.0
2018-Mar-27 11:17N 55°28' E 008°26'0 0.0
2018-Mar-27 10:59N 55°28' E 008°26'0 0.0
2018-Mar-27 10:29N 55°28' E 008°26'0 0.0
2018-Mar-27 09:53N 55°28' E 008°26'0 0.0
2018-Mar-27 09:23N 55°28' E 008°26'0 0.0
2018-Mar-27 08:59N 55°28' E 008°26'0 0.0
2018-Mar-27 08:29N 55°28' E 008°26'0 0.0
2018-Mar-27 07:53N 55°28' E 008°26'0 0.0
2018-Mar-27 07:26N 55°28' E 008°26'0 0.0
2018-Mar-27 06:56N 55°28' E 008°26'0 0.0
2018-Mar-27 06:29N 55°28' E 008°26'0 0.0
2018-Mar-27 05:59N 55°28' E 008°26'0 0.0
2018-Mar-27 05:29N 55°28' E 008°26'0 0.0
2018-Mar-27 04:56N 55°28' E 008°26'0 0.0
2018-Mar-27 04:26N 55°28' E 008°26'0 0.0
2018-Mar-27 03:56N 55°28' E 008°26'0 0.0
2018-Mar-27 03:26N 55°28' E 008°26'0 0.0
2018-Mar-27 02:59N 55°28' E 008°26'0 0.0
2018-Mar-27 01:59N 55°28' E 008°26'0 0.0
2018-Mar-27 01:29N 55°28' E 008°26'0 0.0
2018-Mar-27 00:50N 55°28' E 008°26'0 0.0
2018-Mar-27 00:26N 55°28' E 008°26'0 0.0
2018-Mar-26 23:59N 55°28' E 008°26'0 0.0
2018-Mar-26 23:29N 55°28' E 008°26'0 0.0
2018-Mar-26 22:59N 55°28' E 008°26'0 0.0
2018-Mar-26 22:23N 55°28' E 008°26'0 0.0
2018-Mar-26 21:59N 55°28' E 008°26'0 0.0
2018-Mar-26 21:29N 55°28' E 008°26'0 0.0
2018-Mar-26 20:59N 55°28' E 008°26'0 0.0
2018-Mar-26 20:29N 55°28' E 008°26'0 0.0
2018-Mar-26 19:53N 55°28' E 008°26'0 0.0
2018-Mar-26 19:29N 55°28' E 008°26'0 0.0
2018-Mar-26 18:59N 55°28' E 008°26'0 0.0
2018-Mar-26 18:23N 55°28' E 008°26'0 0.0
2018-Mar-26 17:59N 55°28' E 008°26'0 0.0
2018-Mar-26 17:29N 55°28' E 008°26'0 0.0
2018-Mar-26 16:59N 55°28' E 008°26'0 0.0
2018-Mar-26 16:29N 55°28' E 008°26'0 0.0
2018-Mar-26 15:47N 55°28' E 008°26'0 0.0
2018-Mar-26 15:29N 55°28' E 008°26'0 0.0
2018-Mar-26 14:56N 55°28' E 008°26'0 0.0
2018-Mar-26 14:26N 55°28' E 008°26'0 0.0
2018-Mar-26 13:59N 55°28' E 008°26'0 0.0
2018-Mar-26 13:29N 55°28' E 008°26'0 0.0
2018-Mar-26 12:56N 55°28' E 008°26'0 0.0
2018-Mar-26 12:29N 55°28' E 008°26'0 0.0
2018-Mar-26 11:59N 55°28' E 008°26'0 0.0
2018-Mar-26 11:20N 55°28' E 008°26'0 0.0
2018-Mar-26 10:59N 55°28' E 008°26'0 0.0
2018-Mar-26 10:14N 55°28' E 008°26'0 0.0
2018-Mar-26 09:59N 55°28' E 008°26'0 0.0
2018-Mar-26 09:23N 55°28' E 008°26'0 0.0
2018-Mar-26 08:35N 55°28' E 008°26'0 0.0
2018-Mar-26 08:23N 55°28' E 008°26'0 0.0
2018-Mar-26 07:38N 55°28' E 008°26'0 0.0
2018-Mar-26 07:23N 55°28' E 008°26'0 0.0
2018-Mar-26 06:50N 55°28' E 008°26'0 0.0
2018-Mar-26 05:41N 55°28' E 008°26'0 0.0
2018-Mar-26 05:26N 55°28' E 008°26'0 0.0
2018-Mar-26 04:47N 55°28' E 008°26'0 0.0
2018-Mar-26 04:26N 55°28' E 008°26'0 0.0
2018-Mar-26 03:56N 55°28' E 008°26'0 0.0
2018-Mar-26 03:23N 55°28' E 008°26'0 0.0
2018-Mar-26 02:59N 55°28' E 008°26'0 0.0
2018-Mar-26 02:29N 55°28' E 008°26'0 0.0
2018-Mar-26 01:59N 55°28' E 008°26'0 0.0
2018-Mar-26 01:29N 55°28' E 008°26'0 0.0
2018-Mar-26 00:59N 55°28' E 008°26'0 0.0
2018-Mar-26 00:26N 55°28' E 008°26'0 0.0
2018-Mar-25 23:59N 55°28' E 008°26'0 0.0
2018-Mar-25 23:29N 55°28' E 008°26'0 0.0
2018-Mar-25 22:56N 55°28' E 008°26'0 0.0
2018-Mar-25 22:29N 55°28' E 008°26'0 0.0
2018-Mar-25 21:59N 55°28' E 008°26'0 0.0
2018-Mar-25 21:29N 55°28' E 008°26'0 0.0
2018-Mar-25 20:59N 55°28' E 008°26'0 0.0
2018-Mar-25 20:29N 55°28' E 008°26'0 0.0
2018-Mar-25 19:47N 55°28' E 008°26'0 0.0
2018-Mar-25 19:17N 55°28' E 008°26'0 0.0
2018-Mar-25 18:23N 55°28' E 008°26'0 0.0
2018-Mar-25 17:56N 55°28' E 008°26'0 0.0
2018-Mar-25 17:26N 55°28' E 008°26'0 0.0
2018-Mar-25 16:56N 55°28' E 008°26'0 0.0
2018-Mar-25 16:23N 55°28' E 008°26'0 0.0
2018-Mar-25 15:56N 55°28' E 008°26'0 0.0
2018-Mar-25 15:26N 55°28' E 008°26'0 0.0
2018-Mar-25 14:56N 55°28' E 008°26'0 0.0
2018-Mar-25 14:26N 55°28' E 008°26'0 0.0
2018-Mar-25 13:56N 55°28' E 008°26'0 0.0
2018-Mar-25 13:26N 55°28' E 008°26'0 0.0
2018-Mar-25 12:59N 55°28' E 008°26'0 0.0
2018-Mar-25 11:41N 55°28' E 008°26'0 0.0
2018-Mar-25 11:29N 55°28' E 008°26'0 0.0
2018-Mar-25 10:59N 55°28' E 008°26'0 0.0
2018-Mar-25 10:29N 55°28' E 008°26'0 0.0
2018-Mar-25 09:47N 55°28' E 008°26'0 0.0
2018-Mar-25 09:29N 55°28' E 008°26'0 0.0
2018-Mar-25 08:59N 55°28' E 008°26'0 0.0
2018-Mar-25 07:47N 55°28' E 008°26'0 0.0
2018-Mar-25 07:29N 55°28' E 008°26'0 0.0
2018-Mar-25 06:59N 55°28' E 008°26'0 0.0
2018-Mar-25 06:29N 55°28' E 008°26'0 0.0
2018-Mar-25 05:59N 55°28' E 008°26'0 0.0
2018-Mar-25 05:29N 55°28' E 008°26'0 0.0
2018-Mar-25 04:56N 55°28' E 008°26'0 0.0
2018-Mar-25 04:29N 55°28' E 008°26'0 0.0
2018-Mar-25 03:59N 55°28' E 008°26'0 0.0
2018-Mar-25 03:23N 55°28' E 008°26'0 0.0
2018-Mar-25 02:56N 55°28' E 008°26'0 0.0
2018-Mar-25 02:29N 55°28' E 008°26'0 0.0
2018-Mar-25 01:59N 55°28' E 008°26'0 0.0
2018-Mar-25 01:26N 55°28' E 008°26'0 0.0
2018-Mar-25 00:56N 55°28' E 008°26'0 0.0
2018-Mar-25 00:26N 55°28' E 008°26'0 0.0
2018-Mar-24 23:56N 55°28' E 008°26'0 0.0
2018-Mar-24 23:20N 55°28' E 008°26'0 0.0
2018-Mar-24 22:59N 55°28' E 008°26'0 0.0
2018-Mar-24 22:29N 55°28' E 008°26'0 0.0
2018-Mar-24 21:41N 55°28' E 008°26'0 0.0
2018-Mar-24 21:29N 55°28' E 008°26'0 0.0
2018-Mar-24 20:59N 55°28' E 008°26'0 0.0
2018-Mar-24 20:26N 55°28' E 008°26'0 0.0
2018-Mar-24 19:56N 55°28' E 008°26'0 0.0
2018-Mar-24 19:29N 55°28' E 008°26'0 0.0
2018-Mar-24 18:47N 55°28' E 008°26'0 0.0
2018-Mar-24 17:59N 55°28' E 008°26'0 0.0
2018-Mar-24 17:17N 55°28' E 008°26'0 0.0
2018-Mar-24 16:53N 55°28' E 008°26'0 0.0
2018-Mar-24 16:29N 55°28' E 008°26'0 0.0
2018-Mar-24 15:53N 55°28' E 008°26'0 0.0
2018-Mar-24 15:20N 55°28' E 008°26'0 0.0
2018-Mar-24 14:50N 55°28' E 008°26'0 0.0
2018-Mar-24 14:29N 55°28' E 008°26'0 0.0
2018-Mar-24 13:53N 55°28' E 008°26'0 0.0
2018-Mar-24 13:23N 55°28' E 008°26'0 0.0
2018-Mar-24 12:53N 55°28' E 008°26'0 0.0
2018-Mar-24 12:20N 55°28' E 008°26'0 0.0
2018-Mar-24 11:53N 55°28' E 008°26'0 0.0
2018-Mar-24 11:26N 55°28' E 008°26'0 0.0
2018-Mar-24 10:56N 55°28' E 008°26'0 0.0
2018-Mar-24 10:23N 55°28' E 008°26'0 0.0
2018-Mar-24 09:56N 55°28' E 008°26'0 0.0
2018-Mar-24 09:29N 55°28' E 008°26'0 0.0
2018-Mar-24 08:59N 55°28' E 008°26'0 0.0
2018-Mar-24 08:29N 55°28' E 008°26'0 0.0
2018-Mar-24 07:56N 55°28' E 008°26'0 0.0
2018-Mar-24 07:29N 55°28' E 008°26'0 0.0
2018-Mar-24 06:26N 55°28' E 008°26'0 0.0
2018-Mar-24 05:56N 55°28' E 008°26'0 0.0
2018-Mar-24 05:17N 55°28' E 008°26'0 0.0
2018-Mar-24 04:59N 55°28' E 008°26'0 0.0
2018-Mar-24 04:29N 55°28' E 008°26'0 0.0
2018-Mar-24 03:59N 55°28' E 008°26'0 0.0
2018-Mar-24 03:29N 55°28' E 008°26'0 0.0
2018-Mar-24 02:59N 55°28' E 008°26'0 0.0
2018-Mar-24 02:29N 55°28' E 008°26'0 0.0
2018-Mar-24 01:59N 55°28' E 008°26'0 0.0
2018-Mar-24 01:29N 55°28' E 008°26'0 0.0
2018-Mar-24 00:59N 55°28' E 008°26'0 0.0
2018-Mar-24 00:20N 55°28' E 008°26'0 0.0
2018-Mar-23 23:50N 55°28' E 008°26'0 0.0
2018-Mar-23 23:23N 55°28' E 008°26'0 0.0
2018-Mar-23 22:50N 55°28' E 008°26'0 0.0
2018-Mar-23 22:23N 55°28' E 008°26'0 0.0
2018-Mar-23 21:56N 55°28' E 008°26'0 0.0
2018-Mar-23 21:11N 55°28' E 008°26'0 0.0
2018-Mar-23 20:56N 55°28' E 008°26'0 0.0
2018-Mar-23 20:29N 55°28' E 008°26'0 0.0
2018-Mar-23 19:59N 55°28' E 008°26'0 0.0
2018-Mar-23 19:17N 55°28' E 008°26'0 0.0
2018-Mar-23 18:59N 55°28' E 008°26'0 0.0
2018-Mar-23 18:11N 55°28' E 008°26'0 0.0
2018-Mar-23 17:44N 55°28' E 008°26'0 0.0
2018-Mar-23 17:26N 55°28' E 008°26'0 0.0
2018-Mar-23 16:59N 55°28' E 008°26'0 0.0
2018-Mar-23 16:29N 55°28' E 008°26'0 0.0
2018-Mar-23 15:56N 55°28' E 008°26'0 0.0
2018-Mar-23 15:26N 55°28' E 008°26'0 0.0
2018-Mar-23 14:38N 55°28' E 008°26'0 0.0
2018-Mar-23 14:29N 55°28' E 008°26'0 0.0
2018-Mar-23 13:47N 55°28' E 008°26'0 0.0
2018-Mar-23 13:29N 55°28' E 008°26'0 0.0
2018-Mar-23 12:59N 55°28' E 008°26'0 0.0
2018-Mar-23 12:14N 55°28' E 008°26'0 0.0
2018-Mar-23 11:50N 55°28' E 008°26'0 0.0
2018-Mar-23 11:17N 55°28' E 008°26'0 0.0
2018-Mar-23 10:50N 55°28' E 008°26'0 0.0
2018-Mar-23 10:23N 55°28' E 008°26'0 0.0
2018-Mar-23 09:53N 55°28' E 008°26'0 0.0
2018-Mar-23 09:23N 55°28' E 008°26'0 0.0
2018-Mar-23 08:53N 55°28' E 008°26'0 0.0
2018-Mar-23 08:23N 55°28' E 008°26'0 0.0
2018-Mar-23 07:53N 55°28' E 008°26'0 0.0
2018-Mar-23 07:20N 55°28' E 008°26'0 0.0
2018-Mar-23 06:56N 55°28' E 008°26'0 0.0
2018-Mar-23 06:26N 55°28' E 008°26'0 0.0
2018-Mar-23 05:56N 55°28' E 008°26'0 0.0
2018-Mar-23 05:26N 55°28' E 008°26'0 0.0
2018-Mar-23 04:59N 55°28' E 008°26'0 0.0
2018-Mar-23 04:29N 55°28' E 008°26'0 0.0
2018-Mar-23 03:59N 55°28' E 008°26'0 0.0
2018-Mar-23 02:59N 55°28' E 008°26'0 0.0
2018-Mar-23 02:17N 55°28' E 008°26'0 0.0
2018-Mar-23 01:56N 55°28' E 008°26'0 0.0
2018-Mar-23 01:26N 55°28' E 008°26'0 0.0
2018-Mar-23 00:59N 55°28' E 008°26'0 0.0
2018-Mar-23 00:29N 55°28' E 008°26'0 0.0
2018-Mar-22 23:59N 55°28' E 008°26'0 0.0
2018-Mar-22 23:23N 55°28' E 008°26'0 0.0
2018-Mar-22 22:59N 55°28' E 008°26'0 0.0
2018-Mar-22 22:29N 55°28' E 008°26'0 0.0
2018-Mar-22 21:59N 55°28' E 008°26'0 0.0
2018-Mar-22 21:23N 55°28' E 008°26'0 0.0
2018-Mar-22 20:53N 55°28' E 008°26'0 0.0
2018-Mar-22 20:23N 55°28' E 008°26'0 0.0
2018-Mar-22 19:53N 55°28' E 008°26'0 0.0
2018-Mar-22 19:23N 55°28' E 008°26'0 0.0
2018-Mar-22 18:59N 55°28' E 008°26'0 0.0
2018-Mar-22 18:23N 55°28' E 008°26'0 0.0
2018-Mar-22 17:56N 55°28' E 008°26'0 0.0
2018-Mar-22 17:23N 55°28' E 008°26'0 0.0
2018-Mar-22 16:59N 55°28' E 008°26'0 0.0
2018-Mar-22 16:26N 55°28' E 008°26'0 0.0
2018-Mar-22 15:56N 55°28' E 008°26'0 0.0
2018-Mar-22 15:26N 55°28' E 008°26'0 0.0
2018-Mar-22 14:59N 55°28' E 008°26'0 0.0
2018-Mar-22 14:29N 55°28' E 008°26'0 0.0
2018-Mar-22 13:56N 55°28' E 008°26'0 0.0
2018-Mar-22 13:29N 55°28' E 008°26'0 0.0
2018-Mar-22 12:56N 55°28' E 008°26'0 0.0
2018-Mar-22 12:17N 55°28' E 008°26'0 0.0
2018-Mar-22 11:56N 55°28' E 008°26'0 0.0
2018-Mar-22 11:29N 55°28' E 008°26'0 0.0
2018-Mar-22 10:59N 55°28' E 008°26'0 0.0
2018-Mar-22 10:29N 55°28' E 008°26'0 0.0
2018-Mar-22 09:59N 55°28' E 008°26'0 0.0
2018-Mar-22 09:29N 55°28' E 008°26'0 0.0
2018-Mar-22 08:59N 55°28' E 008°26'0 0.0
2018-Mar-22 08:29N 55°28' E 008°26'0 0.0
2018-Mar-22 07:47N 55°28' E 008°26'0 0.0
2018-Mar-22 07:20N 55°28' E 008°26'0 0.0
2018-Mar-22 06:56N 55°28' E 008°26'0 0.0
2018-Mar-22 06:23N 55°28' E 008°26'0 0.0
2018-Mar-22 05:53N 55°28' E 008°26'0 0.0
2018-Mar-22 05:20N 55°28' E 008°26'0 0.0
2018-Mar-22 04:59N 55°28' E 008°26'0 0.0
2018-Mar-22 04:23N 55°28' E 008°26'0 0.0
2018-Mar-22 03:56N 55°28' E 008°26'0 0.0
2018-Mar-22 03:26N 55°28' E 008°26'0 0.0
2018-Mar-22 02:53N 55°28' E 008°26'0 0.0
2018-Mar-22 02:26N 55°28' E 008°26'0 0.0
2018-Mar-22 01:59N 55°28' E 008°26'0 0.0
2018-Mar-22 01:26N 55°28' E 008°26'0 0.0
2018-Mar-22 00:59N 55°28' E 008°26'0 0.0
2018-Mar-22 00:29N 55°28' E 008°26'0 0.0
2018-Mar-21 23:53N 55°28' E 008°26'0 0.0
2018-Mar-21 23:29N 55°28' E 008°26'0 0.0
2018-Mar-21 22:59N 55°28' E 008°26'0 0.0
2018-Mar-21 22:29N 55°28' E 008°26'0 0.0
2018-Mar-21 21:59N 55°28' E 008°26'0 0.0
2018-Mar-21 21:29N 55°28' E 008°26'0 0.0
2018-Mar-21 20:59N 55°28' E 008°26'0 0.0
2018-Mar-21 20:29N 55°28' E 008°26'0 0.0
2018-Mar-21 19:59N 55°28' E 008°26'0 0.0
2018-Mar-21 19:29N 55°28' E 008°26'0 0.0
2018-Mar-21 18:59N 55°28' E 008°26'0 0.0
2018-Mar-21 18:26N 55°28' E 008°26'  

Dump ship's entire track history